Time;durP1;ratioP1;P1;durP2;ratioP2;P2;SDS_P1;SDS_P2;PMS_P1;PMS_P2;Temp;Humidity;BMP_temperature;BMP_pressure;BME280_temperature;BME280_humidity;BME280_pressure;Samples;Min_cycle;Max_cycle;Signal;HPM_P1;HPM_P2
2022/03/18 00:02:06;;;;;;;15.95;4.20;;;2.60;99.90;;;;;;6152764;23;20060;-78
2022/03/18 00:04:32;;;;;;;9.80;4.30;;;2.60;99.90;;;;;;6152333;23;20025;-78
2022/03/18 00:06:58;;;;;;;7.63;3.97;;;2.60;99.90;;;;;;6152180;23;20089;-78
2022/03/18 00:09:24;;;;;;;7.32;4.60;;;2.60;99.90;;;;;;6127910;23;20048;-78
2022/03/18 00:11:50;;;;;;;14.63;5.20;;;2.60;99.90;;;;;;6127649;23;20016;-78
2022/03/18 00:14:16;;;;;;;11.93;4.20;;;2.50;99.90;;;;;;6152419;23;20014;-78
2022/03/18 00:16:41;;;;;;;9.18;4.20;;;2.50;99.90;;;;;;6127790;23;20020;-78
2022/03/18 00:19:07;;;;;;;10.05;4.32;;;2.50;99.90;;;;;;6127664;23;20092;-78
2022/03/18 00:21:35;;;;;;;11.18;4.55;;;2.50;99.90;;;;;;6153382;23;20006;-78
2022/03/18 00:24:03;;;;;;;14.60;5.85;;;2.50;99.90;;;;;;6152492;23;20435;-78
2022/03/18 00:26:29;;;;;;;9.27;4.95;;;2.60;99.90;;;;;;6127338;23;20506;-78
2022/03/18 00:28:55;;;;;;;9.48;4.40;;;2.50;99.90;;;;;;6152296;23;20056;-78
2022/03/18 00:31:20;;;;;;;10.10;5.63;;;2.40;99.90;;;;;;6127451;23;20013;-78
2022/03/18 00:33:46;;;;;;;11.90;4.45;;;2.50;99.90;;;;;;6152128;23;20020;-77
2022/03/18 00:36:11;;;;;;;13.80;4.57;;;2.50;99.90;;;;;;6153934;23;20467;-78
2022/03/18 00:38:37;;;;;;;16.48;5.07;;;2.50;99.90;;;;;;6152260;23;20092;-78
2022/03/18 00:41:03;;;;;;;19.75;5.53;;;2.70;99.90;;;;;;6153014;23;20018;-78
2022/03/18 00:43:29;;;;;;;12.88;4.63;;;2.50;99.90;;;;;;6153782;23;20045;-78
2022/03/18 00:45:55;;;;;;;10.77;4.82;;;2.50;99.90;;;;;;6151837;23;20451;-78
2022/03/18 00:53:48;;;;;;;13.02;4.90;;;2.50;99.90;;;;;;6151853;23;20025;-78
2022/03/18 00:56:14;;;;;;;13.70;4.93;;;2.50;99.90;;;;;;6151626;23;20363;-78
2022/03/18 00:58:39;;;;;;;6.95;3.85;;;2.40;99.90;;;;;;6152160;23;20017;-77
2022/03/18 01:01:06;;;;;;;7.85;5.07;;;2.40;99.90;;;;;;6127220;23;20454;-78
2022/03/18 01:03:31;;;;;;;18.35;4.82;;;2.40;99.90;;;;;;6127157;23;20021;-78
2022/03/18 01:05:57;;;;;;;11.05;5.18;;;2.50;99.90;;;;;;6151618;23;20358;-78
2022/03/18 01:08:23;;;;;;;15.52;4.97;;;2.40;99.90;;;;;;6151704;23;20029;-78
2022/03/18 01:10:52;;;;;;;14.75;4.88;;;2.40;99.90;;;;;;6151762;23;20005;-78
2022/03/18 01:13:17;;;;;;;11.38;4.88;;;2.40;99.90;;;;;;6151685;23;20041;-78
2022/03/18 01:15:43;;;;;;;17.80;5.13;;;2.30;99.90;;;;;;6151757;23;20028;-77
2022/03/18 01:18:08;;;;;;;13.52;4.97;;;2.30;99.90;;;;;;6153241;23;20017;-78
2022/03/18 01:20:34;;;;;;;6.70;4.25;;;2.30;99.90;;;;;;6153449;23;20009;-78
2022/03/18 01:23:00;;;;;;;17.08;4.95;;;2.20;99.90;;;;;;6151939;23;20505;-78
2022/03/18 01:25:26;;;;;;;12.23;4.95;;;2.20;99.90;;;;;;6151444;23;20013;-78
2022/03/18 01:27:52;;;;;;;11.13;4.45;;;2.20;99.90;;;;;;6151515;23;20016;-78
2022/03/18 01:30:17;;;;;;;11.50;4.45;;;2.20;99.90;;;;;;6151584;23;20049;-78
2022/03/18 01:32:43;;;;;;;6.97;4.68;;;2.20;99.90;;;;;;6151900;23;20022;-78
2022/03/18 01:35:09;;;;;;;11.77;4.55;;;2.20;99.90;;;;;;6153290;23;20021;-78
2022/03/18 01:37:35;;;;;;;12.65;5.18;;;2.10;99.90;;;;;;6151513;23;20013;-78
2022/03/18 01:40:00;;;;;;;9.98;4.55;;;2.10;99.90;;;;;;6153101;23;20342;-78
2022/03/18 01:42:26;;;;;;;12.60;5.10;;;2.00;99.90;;;;;;6127226;23;20088;-78
2022/03/18 01:44:51;;;;;;;11.15;4.60;;;2.00;99.90;;;;;;6151616;23;20022;-78
2022/03/18 01:47:18;;;;;;;11.57;5.68;;;2.00;99.90;;;;;;6151609;23;20017;-78
2022/03/18 01:49:44;;;;;;;14.65;5.05;;;2.00;99.90;;;;;;6152963;23;20020;-78
2022/03/18 01:52:11;;;;;;;12.38;5.03;;;2.00;99.90;;;;;;6153330;23;20049;-78
2022/03/18 01:54:49;;;;;;;10.93;4.60;;;2.10;99.90;;;;;;6126945;23;20028;-79
2022/03/18 01:57:23;;;;;;;7.65;4.28;;;2.20;99.90;;;;;;6151271;23;20024;-78
2022/03/18 01:59:52;;;;;;;10.15;4.60;;;2.20;99.90;;;;;;6151645;23;20013;-78
2022/03/18 02:02:18;;;;;;;11.65;4.38;;;2.10;99.90;;;;;;6151396;23;20060;-78
2022/03/18 02:04:44;;;;;;;17.48;5.57;;;2.00;99.90;;;;;;6126699;23;20021;-78
2022/03/18 02:07:11;;;;;;;9.73;6.07;;;2.00;99.90;;;;;;6151838;23;20068;-78
2022/03/18 02:09:38;;;;;;;10.60;4.43;;;2.00;99.90;;;;;;6151006;23;20009;-78
2022/03/18 02:12:05;;;;;;;14.43;4.55;;;2.00;99.90;;;;;;6126939;23;20060;-78
2022/03/18 02:14:34;;;;;;;12.60;5.28;;;2.00;99.90;;;;;;6126854;23;20072;-78
2022/03/18 02:17:03;;;;;;;10.75;4.63;;;2.00;99.90;;;;;;6127127;23;20028;-78
2022/03/18 02:19:28;;;;;;;8.05;4.22;;;1.90;99.90;;;;;;6151045;23;20088;-78
2022/03/18 02:21:56;;;;;;;12.48;4.35;;;1.90;99.90;;;;;;6151598;23;20049;-78
2022/03/18 02:24:21;;;;;;;12.93;4.57;;;1.90;99.90;;;;;;6152711;23;20021;-78
2022/03/18 02:26:49;;;;;;;6.97;3.92;;;1.80;99.90;;;;;;6151371;23;20085;-78
2022/03/18 02:29:19;;;;;;;11.73;5.30;;;1.80;99.90;;;;;;6153175;23;20009;-78
2022/03/18 02:31:45;;;;;;;14.88;4.55;;;1.80;99.90;;;;;;6152998;23;20018;-78
2022/03/18 02:34:11;;;;;;;10.43;4.15;;;1.80;99.90;;;;;;6151375;23;20020;-78
2022/03/18 02:36:37;;;;;;;8.82;5.03;;;1.80;99.90;;;;;;6151626;23;20009;-78
2022/03/18 02:39:04;;;;;;;11.88;6.00;;;1.80;99.90;;;;;;6126767;23;20037;-78
2022/03/18 02:41:30;;;;;;;9.43;4.20;;;1.90;99.90;;;;;;6152787;23;20018;-78
2022/03/18 02:43:55;;;;;;;8.57;4.68;;;1.90;99.90;;;;;;6152660;23;20048;-78
2022/03/18 02:46:21;;;;;;;11.02;4.75;;;1.90;99.90;;;;;;6154790;23;20009;-78
2022/03/18 02:48:47;;;;;;;13.00;5.32;;;2.00;99.90;;;;;;6153036;23;20053;-78
2022/03/18 02:51:13;;;;;;;10.00;5.40;;;2.00;99.90;;;;;;6163551;23;20020;-79
2022/03/18 02:53:39;;;;;;;13.10;5.53;;;2.00;99.90;;;;;;6162487;23;20017;-79
2022/03/18 02:56:07;;;;;;;14.25;5.75;;;2.00;99.90;;;;;;6163763;23;20027;-79
2022/03/18 02:58:35;;;;;;;13.18;4.97;;;2.00;99.90;;;;;;6139462;23;20013;-79
2022/03/18 03:01:02;;;;;;;10.50;4.78;;;2.00;99.90;;;;;;6138282;23;20009;-78
2022/03/18 03:03:28;;;;;;;11.23;4.95;;;2.00;99.90;;;;;;6139102;23;20017;-79
2022/03/18 03:08:39;;;;;;;11.38;5.47;;;2.00;99.90;;;;;;6164600;23;20373;-79
2022/03/18 03:11:04;;;;;;;11.77;5.10;;;2.00;99.90;;;;;;6138926;23;20013;-80
2022/03/18 03:13:30;;;;;;;11.27;5.20;;;2.00;99.90;;;;;;6163736;23;20040;-79
2022/03/18 03:15:56;;;;;;;11.70;5.07;;;1.90;99.90;;;;;;6134466;23;20354;-78
2022/03/18 03:18:21;;;;;;;10.52;4.95;;;2.00;99.90;;;;;;6153269;23;20021;-78
2022/03/18 03:20:48;;;;;;;12.70;4.65;;;1.90;99.90;;;;;;6153641;23;20041;-78
2022/03/18 03:23:13;;;;;;;8.57;4.90;;;1.90;99.90;;;;;;6153851;23;20100;-78
2022/03/18 03:25:40;;;;;;;10.80;5.50;;;1.90;99.90;;;;;;6155139;23;20466;-78
2022/03/18 03:28:05;;;;;;;13.43;4.85;;;1.90;99.90;;;;;;6153978;23;20117;-79
2022/03/18 03:30:31;;;;;;;9.57;4.80;;;1.90;99.90;;;;;;6155581;23;20033;-79
2022/03/18 03:32:57;;;;;;;11.07;5.32;;;1.90;99.90;;;;;;6153403;23;20013;-79
2022/03/18 03:35:22;;;;;;;17.42;6.05;;;1.90;99.90;;;;;;6153890;23;20068;-79
2022/03/18 03:37:48;;;;;;;12.90;5.55;;;1.90;99.90;;;;;;6155496;23;20082;-79
2022/03/18 03:40:14;;;;;;;13.73;5.97;;;1.90;99.90;;;;;;6155228;23;20080;-79
2022/03/18 03:42:41;;;;;;;10.85;5.82;;;1.90;99.90;;;;;;6154001;23;20009;-79
2022/03/18 03:45:08;;;;;;;13.07;5.35;;;1.90;99.90;;;;;;6154150;23;20470;-79
2022/03/18 03:47:33;;;;;;;14.52;5.88;;;1.90;99.90;;;;;;6154084;23;20048;-79
2022/03/18 03:49:59;;;;;;;12.93;6.65;;;1.90;99.90;;;;;;6153099;23;20021;-79
2022/03/18 03:52:24;;;;;;;11.85;6.20;;;1.90;99.90;;;;;;6153407;23;20018;-79
2022/03/18 03:54:50;;;;;;;10.25;5.90;;;1.90;99.90;;;;;;6153356;23;20009;-79
2022/03/18 03:57:15;;;;;;;15.57;5.75;;;1.90;99.90;;;;;;6155045;23;20013;-79
2022/03/18 03:59:41;;;;;;;10.77;5.35;;;1.80;99.90;;;;;;6154892;23;20666;-79
2022/03/18 04:02:08;;;;;;;11.65;5.93;;;1.80;99.90;;;;;;6155751;23;20052;-79
2022/03/18 04:04:33;;;;;;;12.00;5.43;;;1.70;99.90;;;;;;6154643;23;20009;-79
2022/03/18 04:06:59;;;;;;;15.65;6.22;;;1.70;99.90;;;;;;6104259;23;20009;-79
2022/03/18 04:09:25;;;;;;;12.32;4.82;;;1.70;99.90;;;;;;6155385;23;20009;-79
2022/03/18 04:11:51;;;;;;;18.15;5.88;;;1.70;99.90;;;;;;6128628;23;20018;-79
2022/03/18 04:14:16;;;;;;;9.10;5.50;;;1.70;99.90;;;;;;6128945;23;20041;-79
2022/03/18 04:16:44;;;;;;;13.73;5.43;;;1.70;99.90;;;;;;6155387;23;20048;-79
2022/03/18 04:19:10;;;;;;;10.55;5.15;;;1.70;99.90;;;;;;6129130;23;20014;-79
2022/03/18 04:21:36;;;;;;;9.90;5.05;;;1.70;99.90;;;;;;6129097;23;20081;-79
2022/03/18 04:24:01;;;;;;;10.85;5.50;;;1.70;99.90;;;;;;6129587;23;20018;-79
2022/03/18 04:26:27;;;;;;;12.70;5.68;;;1.60;99.90;;;;;;6155812;23;20021;-79
2022/03/18 04:28:53;;;;;;;13.88;6.00;;;1.60;99.90;;;;;;6139587;23;20056;-79
2022/03/18 04:31:19;;;;;;;17.20;7.03;;;1.60;99.90;;;;;;6140418;23;20023;-79
2022/03/18 04:33:44;;;;;;;14.00;5.28;;;1.60;99.90;;;;;;6138878;23;20010;-79
2022/03/18 04:36:10;;;;;;;11.70;5.35;;;1.60;99.90;;;;;;6140466;23;20043;-79
2022/03/18 04:38:36;;;;;;;12.90;6.65;;;1.60;99.90;;;;;;6166104;23;20108;-80
2022/03/18 04:41:02;;;;;;;16.70;6.45;;;1.70;99.90;;;;;;6164574;23;20009;-79
2022/03/18 04:43:27;;;;;;;16.25;6.95;;;1.70;99.90;;;;;;6140116;23;20017;-78
2022/03/18 04:45:53;;;;;;;20.75;7.55;;;1.70;99.90;;;;;;6139776;23;20021;-79
2022/03/18 04:48:19;;;;;;;15.27;6.93;;;1.70;99.90;;;;;;6140287;23;20017;-79
2022/03/18 04:50:44;;;;;;;11.15;6.50;;;1.70;99.90;;;;;;6139094;23;20010;-79
2022/03/18 04:53:10;;;;;;;16.83;7.50;;;1.70;99.90;;;;;;6127653;23;20342;-78
2022/03/18 04:55:35;;;;;;;13.38;6.50;;;1.70;99.90;;;;;;6127513;23;20342;-78
2022/03/18 04:58:01;;;;;;;17.00;6.15;;;1.70;99.90;;;;;;6151927;23;20395;-78
2022/03/18 05:00:27;;;;;;;26.05;7.32;;;1.70;99.90;;;;;;6151664;23;20020;-78
2022/03/18 05:02:52;;;;;;;16.83;6.50;;;1.70;99.90;;;;;;6152095;23;20358;-78
2022/03/18 05:05:20;;;;;;;16.73;6.53;;;1.60;99.90;;;;;;6153351;23;20018;-78
2022/03/18 05:07:50;;;;;;;16.42;6.78;;;1.60;99.90;;;;;;6153624;23;20010;-78
2022/03/18 05:10:16;;;;;;;13.98;6.30;;;1.60;99.90;;;;;;6126839;23;20013;-78
2022/03/18 05:12:42;;;;;;;14.68;6.60;;;1.50;99.90;;;;;;6151198;23;20020;-78
2022/03/18 05:15:09;;;;;;;13.20;6.30;;;1.50;99.90;;;;;;6126094;23;20021;-78
2022/03/18 05:17:37;;;;;;;17.63;6.53;;;1.50;99.90;;;;;;6126083;23;20013;-78
2022/03/18 05:20:04;;;;;;;21.27;7.40;;;1.50;99.90;;;;;;6128097;23;20036;-79
2022/03/18 05:22:30;;;;;;;11.85;6.03;;;1.60;99.90;;;;;;6138826;23;20033;-79
2022/03/18 05:24:57;;;;;;;19.02;6.40;;;1.50;99.90;;;;;;6162921;23;20437;-79
2022/03/18 05:27:23;;;;;;;13.43;6.45;;;1.50;99.90;;;;;;6137654;23;20014;-79
2022/03/18 05:29:49;;;;;;;17.75;6.70;;;1.50;99.90;;;;;;6136248;23;20028;-79
2022/03/18 05:32:15;;;;;;;16.95;6.53;;;1.40;99.90;;;;;;6161682;23;20065;-79
2022/03/18 05:34:41;;;;;;;14.13;6.18;;;1.40;99.90;;;;;;6155265;23;20014;-79
2022/03/18 05:37:06;;;;;;;14.95;6.68;;;1.40;99.90;;;;;;6152442;23;20019;-78
2022/03/18 05:39:33;;;;;;;14.00;6.30;;;1.40;99.90;;;;;;6150609;23;20013;-79
2022/03/18 05:41:59;;;;;;;13.45;6.50;;;1.40;99.90;;;;;;6126791;23;20313;-78
2022/03/18 05:44:25;;;;;;;16.48;6.53;;;1.40;99.90;;;;;;6126638;23;20036;-78
2022/03/18 05:46:51;;;;;;;17.83;7.63;;;1.50;99.90;;;;;;6152042;23;20009;-78
2022/03/18 05:49:18;;;;;;;10.50;6.72;;;1.50;99.90;;;;;;6153335;23;20351;-78
2022/03/18 05:51:44;;;;;;;13.23;6.68;;;1.50;99.90;;;;;;6153858;23;20512;-78
2022/03/18 05:54:10;;;;;;;11.93;5.47;;;1.50;99.90;;;;;;6153796;23;20025;-79
2022/03/18 05:56:52;;;;;;;14.85;6.97;;;1.50;99.90;;;;;;6151970;23;20009;-79
2022/03/18 05:59:25;;;;;;;11.13;5.53;;;1.60;99.90;;;;;;6153015;23;20021;-79
2022/03/18 06:01:53;;;;;;;11.52;5.72;;;1.50;99.90;;;;;;6127837;23;20379;-79
2022/03/18 06:04:18;;;;;;;15.82;6.43;;;1.50;99.90;;;;;;6128913;23;20014;-79
2022/03/18 06:06:47;;;;;;;11.98;7.10;;;1.60;99.90;;;;;;6152821;23;20391;-79
2022/03/18 06:11:56;;;;;;;11.98;6.80;;;1.60;99.90;;;;;;6153851;23;20071;-78
2022/03/18 06:14:24;;;;;;;11.95;6.22;;;1.60;99.90;;;;;;6128490;23;20017;-79
2022/03/18 06:16:52;;;;;;;16.35;5.53;;;1.80;99.90;;;;;;6153783;23;20087;-79
2022/03/18 06:19:18;;;;;;;15.55;6.50;;;1.80;99.90;;;;;;6130116;23;20068;-79
2022/03/18 06:21:45;;;;;;;14.80;7.30;;;1.80;99.90;;;;;;6157205;23;20016;-79
2022/03/18 06:24:11;;;;;;;17.23;7.78;;;1.80;99.90;;;;;;6156658;23;20116;-79
2022/03/18 06:26:37;;;;;;;15.32;6.43;;;1.80;99.90;;;;;;6154930;23;20020;-79
2022/03/18 06:29:04;;;;;;;12.18;6.95;;;1.90;99.90;;;;;;6154773;23;20013;-79
2022/03/18 06:31:30;;;;;;;10.88;6.10;;;1.90;99.90;;;;;;6156826;23;20065;-79
2022/03/18 06:33:56;;;;;;;12.35;6.22;;;2.00;99.90;;;;;;6158451;23;20013;-79
2022/03/18 06:36:21;;;;;;;11.65;5.97;;;2.10;99.90;;;;;;6158464;23;20064;-79
2022/03/18 06:38:47;;;;;;;20.95;7.95;;;2.10;99.90;;;;;;6163366;23;20021;-80
2022/03/18 06:41:14;;;;;;;14.60;7.57;;;2.20;99.90;;;;;;6160120;23;20018;-80
2022/03/18 06:43:40;;;;;;;18.95;8.00;;;2.30;99.90;;;;;;6158512;23;20044;-80
2022/03/18 06:46:06;;;;;;;15.82;7.78;;;2.30;99.90;;;;;;6158124;23;20018;-80
2022/03/18 06:48:31;;;;;;;20.00;9.65;;;2.50;99.90;;;;;;6158050;23;20052;-80
2022/03/18 06:50:59;;;;;;;42.28;13.98;;;2.70;99.90;;;;;;6132302;23;20025;-79
2022/03/18 06:53:25;;;;;;;20.05;8.40;;;2.70;99.90;;;;;;6156865;23;20037;-80
2022/03/18 06:55:51;;;;;;;21.15;9.98;;;2.80;99.90;;;;;;6157395;23;20018;-80
2022/03/18 06:58:17;;;;;;;22.63;9.68;;;2.90;99.90;;;;;;6132629;23;20433;-81
2022/03/18 07:00:42;;;;;;;23.08;8.57;;;3.00;99.90;;;;;;6132177;23;20053;-80
2022/03/18 07:03:08;;;;;;;20.63;9.23;;;3.10;99.90;;;;;;6133575;23;20025;-81
2022/03/18 07:05:33;;;;;;;27.30;9.52;;;3.20;99.90;;;;;;6133417;23;20038;-79
2022/03/18 07:07:59;;;;;;;22.55;10.20;;;3.50;99.90;;;;;;6131298;23;20352;-80
2022/03/18 07:10:25;;;;;;;25.63;10.05;;;3.80;99.90;;;;;;6131994;23;20014;-80
2022/03/18 07:12:51;;;;;;;24.95;10.02;;;3.90;99.90;;;;;;6109240;23;20125;-81
2022/03/18 07:15:17;;;;;;;21.17;9.40;;;4.00;99.90;;;;;;6109954;23;20041;-80
2022/03/18 07:17:55;;;;;;;19.23;8.48;;;4.30;99.90;;;;;;6108204;23;20013;-80
2022/03/18 07:20:23;;;;;;;17.15;9.07;;;4.70;99.90;;;;;;6132779;23;20056;-80
2022/03/18 07:23:21;;;;;;;19.30;10.15;;;5.30;99.90;;;;;;6133229;23;20013;-80
2022/03/18 07:25:48;;;;;;;19.67;9.20;;;5.70;99.90;;;;;;6133883;23;20096;-81
2022/03/18 07:28:16;;;;;;;21.85;9.70;;;6.30;99.90;;;;;;6131769;23;20044;-81
2022/03/18 07:30:43;;;;;;;16.63;8.88;;;6.90;99.90;;;;;;6130460;23;20016;-81
2022/03/18 07:33:09;;;;;;;17.75;9.27;;;7.60;99.90;;;;;;6131013;23;20117;-81
2022/03/18 07:35:35;;;;;;;17.75;9.55;;;7.90;99.90;;;;;;6130142;23;20013;-81
2022/03/18 07:38:08;;;;;;;22.33;9.02;;;8.30;99.90;;;;;;6106096;23;20076;-81
2022/03/18 07:40:34;;;;;;;15.13;8.85;;;8.90;99.90;;;;;;6130580;23;20009;-80
2022/03/18 07:43:00;;;;;;;17.38;9.98;;;9.40;99.90;;;;;;6131314;23;20018;-81
2022/03/18 07:45:28;;;;;;;20.27;9.90;;;9.90;99.90;;;;;;6131894;23;20025;-80
2022/03/18 07:47:56;;;;;;;20.75;10.30;;;10.30;99.90;;;;;;6106300;23;20014;-81
2022/03/18 07:50:23;;;;;;;20.27;11.32;;;10.70;99.90;;;;;;6130578;23;20056;-82
2022/03/18 07:52:50;;;;;;;26.75;11.52;;;11.30;99.90;;;;;;6129470;23;20510;-82
2022/03/18 07:55:21;;;;;;;24.98;12.02;;;11.50;99.90;;;;;;6105001;23;20056;-81
2022/03/18 07:57:47;;;;;;;23.05;12.20;;;11.80;99.90;;;;;;6131627;23;20431;-82
2022/03/18 08:00:14;;;;;;;24.35;11.98;;;12.00;99.90;;;;;;6159144;23;20024;-81
2022/03/18 08:02:41;;;;;;;20.35;11.07;;;12.10;99.90;;;;;;6159421;23;20115;-82
2022/03/18 08:05:07;;;;;;;19.25;10.20;;;12.10;99.90;;;;;;6158711;23;20024;-82
2022/03/18 08:07:33;;;;;;;24.25;10.75;;;11.90;99.90;;;;;;6158920;23;20009;-82
2022/03/18 08:09:59;;;;;;;19.65;11.55;;;11.80;99.90;;;;;;6158701;23;20419;-82
2022/03/18 08:12:28;;;;;;;24.52;11.40;;;12.00;99.90;;;;;;6158815;23;20598;-81
2022/03/18 08:14:55;;;;;;;21.45;11.13;;;12.10;99.90;;;;;;6160324;23;20016;-80
2022/03/18 08:17:21;;;;;;;21.70;10.88;;;12.10;99.90;;;;;;6159403;23;20017;-80
2022/03/18 08:19:46;;;;;;;19.55;11.57;;;12.30;99.90;;;;;;6158825;23;20020;-80
2022/03/18 08:22:12;;;;;;;21.88;10.52;;;12.40;99.90;;;;;;6158940;23;20144;-80
2022/03/18 08:24:37;;;;;;;15.75;9.63;;;12.40;99.90;;;;;;6158992;23;20028;-80
2022/03/18 08:27:03;;;;;;;18.60;9.82;;;12.40;99.90;;;;;;6135319;23;20017;-80
2022/03/18 08:29:29;;;;;;;18.30;9.65;;;12.20;99.90;;;;;;6159438;23;20036;-80
2022/03/18 08:31:54;;;;;;;20.48;10.27;;;11.90;99.90;;;;;;6159143;23;20013;-80
2022/03/18 08:34:21;;;;;;;18.95;9.38;;;11.60;99.90;;;;;;6134594;23;20009;-80
2022/03/18 08:36:46;;;;;;;18.73;8.55;;;11.60;99.90;;;;;;6159988;23;20021;-80
2022/03/18 08:39:12;;;;;;;17.50;9.00;;;11.50;99.90;;;;;;6160111;23;20430;-81
2022/03/18 08:41:38;;;;;;;16.83;8.55;;;11.40;99.90;;;;;;6159208;23;20025;-81
2022/03/18 08:44:03;;;;;;;20.00;9.60;;;11.40;99.90;;;;;;6135431;23;20319;-81
2022/03/18 08:46:29;;;;;;;18.45;9.00;;;11.40;99.90;;;;;;6135111;23;20104;-81
2022/03/18 08:48:54;;;;;;;16.85;8.93;;;11.50;99.90;;;;;;6159068;23;20437;-81
2022/03/18 08:51:20;;;;;;;16.33;8.60;;;11.60;99.90;;;;;;6135280;23;20024;-81
2022/03/18 08:53:46;;;;;;;20.10;9.35;;;11.80;99.90;;;;;;6135934;23;20355;-81
2022/03/18 08:56:11;;;;;;;18.52;8.63;;;11.90;99.90;;;;;;6159217;23;20017;-81
2022/03/18 08:58:37;;;;;;;19.67;8.75;;;12.00;99.90;;;;;;6135143;23;20021;-81
2022/03/18 09:01:02;;;;;;;24.33;9.80;;;12.20;99.90;;;;;;6158193;23;20021;-82
2022/03/18 09:03:28;;;;;;;28.10;9.50;;;12.40;99.90;;;;;;6158857;23;20058;-82
2022/03/18 09:05:55;;;;;;;15.80;9.65;;;12.70;99.90;;;;;;6132788;23;20013;-81
2022/03/18 09:08:21;;;;;;;17.48;7.88;;;12.90;99.90;;;;;;6158182;23;20017;-81
2022/03/18 09:10:47;;;;;;;16.23;6.72;;;13.00;99.90;;;;;;6133840;23;20088;-81
2022/03/18 09:13:12;;;;;;;15.60;7.40;;;13.10;99.90;;;;;;6133829;23;20492;-81
2022/03/18 09:15:38;;;;;;;17.17;7.75;;;13.30;99.90;;;;;;6161124;23;20073;-81
2022/03/18 09:18:03;;;;;;;13.48;7.20;;;13.40;99.90;;;;;;6135585;23;20024;-80
2022/03/18 09:20:29;;;;;;;23.17;7.50;;;13.60;99.90;;;;;;6160817;23;20014;-80
2022/03/18 09:22:55;;;;;;;18.80;7.43;;;13.90;99.90;;;;;;6159343;23;20294;-81
2022/03/18 09:25:20;;;;;;;21.02;7.20;;;14.10;99.90;;;;;;6158091;23;20463;-80
2022/03/18 09:27:46;;;;;;;15.30;7.05;;;14.40;99.90;;;;;;6159333;23;20063;-81
2022/03/18 09:30:13;;;;;;;17.50;7.45;;;14.30;99.90;;;;;;6158454;23;20019;-82
2022/03/18 09:32:42;;;;;;;13.25;6.93;;;14.30;99.90;;;;;;6156248;23;20009;-81
2022/03/18 09:35:14;;;;;;;17.98;7.47;;;14.20;99.90;;;;;;6131481;23;20017;-81
2022/03/18 09:37:40;;;;;;;12.82;6.80;;;14.30;99.90;;;;;;6132371;23;20058;-81
2022/03/18 09:40:08;;;;;;;16.70;7.78;;;14.50;99.90;;;;;;6154974;23;20048;-82
2022/03/18 09:42:35;;;;;;;19.45;8.35;;;14.80;99.90;;;;;;6155932;23;20328;-81
2022/03/18 09:45:01;;;;;;;20.65;8.55;;;15.10;99.90;;;;;;6155300;23;20520;-82
2022/03/18 09:47:28;;;;;;;15.98;7.28;;;15.30;99.90;;;;;;6131431;23;20013;-82
2022/03/18 09:49:53;;;;;;;18.92;8.13;;;15.40;99.90;;;;;;6155019;23;20020;-81
2022/03/18 09:52:20;;;;;;;13.90;8.38;;;15.40;99.90;;;;;;6156484;23;20061;-81
2022/03/18 09:54:45;;;;;;;15.95;8.75;;;15.60;99.90;;;;;;6133374;23;20024;-82
2022/03/18 09:57:12;;;;;;;14.05;8.77;;;15.80;99.90;;;;;;6157837;23;20017;-82
2022/03/18 09:59:37;;;;;;;15.85;7.38;;;16.00;99.90;;;;;;6157580;23;20425;-82
2022/03/18 10:02:26;;;;;;;14.13;6.82;;;16.30;99.90;;;;;;6133139;23;20017;-82
2022/03/18 10:04:53;;;;;;;13.20;6.25;;;16.30;99.90;;;;;;6158659;23;20017;-80
2022/03/18 10:07:19;;;;;;;14.35;6.97;;;16.40;99.90;;;;;;6160356;23;20009;-81
2022/03/18 10:09:44;;;;;;;15.05;6.97;;;16.20;99.90;;;;;;6135829;23;20083;-81
2022/03/18 10:12:33;;;;;;;15.45;7.57;;;16.30;99.90;;;;;;6161977;23;20020;-80
2022/03/18 10:15:10;;;;;;;14.05;6.70;;;16.50;99.90;;;;;;6135577;23;20450;-81
2022/03/18 10:17:48;;;;;;;14.73;7.03;;;16.80;99.90;;;;;;6161979;23;20087;-81
2022/03/18 10:20:24;;;;;;;12.98;7.05;;;16.50;99.90;;;;;;6135850;23;20020;-81
2022/03/18 10:22:52;;;;;;;18.27;7.53;;;15.80;99.90;;;;;;6135260;23;20013;-82
2022/03/18 10:25:50;;;;;;;17.77;7.75;;;15.30;99.90;;;;;;6157245;23;20017;-82
2022/03/18 10:28:18;;;;;;;14.20;7.28;;;15.00;99.90;;;;;;6157788;23;20104;-82
2022/03/18 10:30:44;;;;;;;11.02;6.05;;;14.90;99.90;;;;;;6157341;23;20516;-81
2022/03/18 10:33:09;;;;;;;10.50;6.30;;;14.70;99.90;;;;;;6132462;23;20048;-82
2022/03/18 10:38:31;;;;;;;11.10;7.20;;;14.20;99.90;;;;;;6159028;23;20017;-82
2022/03/18 10:40:59;;;;;;;14.80;7.47;;;14.20;99.90;;;;;;6160083;23;20466;-82
2022/03/18 10:43:25;;;;;;;16.02;7.10;;;14.20;99.90;;;;;;6159833;23;20404;-82
2022/03/18 10:46:01;;;;;;;18.60;8.25;;;14.30;99.90;;;;;;6134765;23;20039;-82
2022/03/18 10:48:27;;;;;;;14.48;7.55;;;14.40;99.90;;;;;;6160995;23;20013;-82
2022/03/18 10:51:07;;;;;;;15.30;7.43;;;14.40;99.90;;;;;;6188424;23;20044;-82
2022/03/18 10:53:34;;;;;;;17.70;7.10;;;14.40;99.90;;;;;;6136391;23;20064;-81
2022/03/18 10:56:01;;;;;;;16.83;6.95;;;14.40;99.90;;;;;;6131100;23;20045;-81
2022/03/18 10:58:36;;;;;;;17.27;7.63;;;14.50;99.90;;;;;;6132823;23;20340;-81
2022/03/18 11:01:02;;;;;;;13.57;5.80;;;14.50;99.90;;;;;;6106981;23;20025;-81
2022/03/18 11:03:30;;;;;;;12.35;7.15;;;14.60;99.90;;;;;;6108730;23;20017;-81
2022/03/18 11:06:02;;;;;;;18.73;7.22;;;14.60;99.90;;;;;;6133453;23;20013;-81
2022/03/18 11:08:35;;;;;;;12.68;5.90;;;14.50;99.90;;;;;;6131975;23;20478;-82
2022/03/18 11:11:07;;;;;;;19.17;6.45;;;14.40;99.90;;;;;;6130620;23;20083;-83
2022/03/18 11:13:56;;;;;;;11.70;6.53;;;14.50;99.90;;;;;;6108992;23;20395;-81
2022/03/18 11:16:28;;;;;;;15.80;6.10;;;14.50;99.90;;;;;;6132522;23;20018;-82
2022/03/18 11:18:55;;;;;;;15.60;6.90;;;14.60;99.90;;;;;;6133539;23;20032;-82
2022/03/18 11:21:22;;;;;;;15.85;6.78;;;14.70;99.90;;;;;;6135478;23;20051;-82
2022/03/18 11:23:49;;;;;;;15.73;6.50;;;14.90;99.90;;;;;;6132381;23;20025;-82
2022/03/18 11:26:16;;;;;;;13.63;6.10;;;15.00;99.90;;;;;;6132086;23;20359;-82
2022/03/18 11:28:42;;;;;;;13.55;5.75;;;15.10;99.90;;;;;;6131191;23;20075;-82
2022/03/18 11:31:11;;;;;;;10.95;5.18;;;15.10;99.90;;;;;;6106981;23;20013;-82
2022/03/18 11:33:38;;;;;;;15.32;5.65;;;14.90;99.90;;;;;;6157295;23;20006;-82
2022/03/18 11:36:04;;;;;;;15.60;5.38;;;14.80;99.90;;;;;;6130833;23;20088;-82
2022/03/18 11:38:56;;;;;;;18.38;5.68;;;14.90;99.90;;;;;;6105000;23;20056;-83
2022/03/18 11:41:45;;;;;;;9.80;5.22;;;15.00;99.90;;;;;;6129778;23;20017;-82
2022/03/18 11:44:11;;;;;;;13.68;5.70;;;15.30;99.90;;;;;;6127365;23;20359;-81
2022/03/18 11:46:36;;;;;;;11.55;6.15;;;15.40;99.90;;;;;;6130002;23;20013;-82
2022/03/18 11:49:06;;;;;;;10.43;4.53;;;15.60;99.90;;;;;;6130925;23;20048;-81
2022/03/18 11:51:36;;;;;;;14.65;5.15;;;15.60;99.90;;;;;;6132008;23;20017;-81
2022/03/18 11:54:15;;;;;;;12.07;5.30;;;15.60;99.90;;;;;;6106107;23;20044;-82
2022/03/18 11:56:41;;;;;;;10.90;5.57;;;15.60;99.90;;;;;;6138731;23;20082;-82
2022/03/18 11:59:25;;;;;;;12.10;5.47;;;15.40;99.90;;;;;;6155538;23;20014;-82
2022/03/18 12:02:14;;;;;;;11.32;5.38;;;15.30;99.90;;;;;;6153520;23;20096;-83
2022/03/18 12:04:50;;;;;;;11.15;5.60;;;15.30;99.90;;;;;;6153395;23;20037;-83
2022/03/18 12:07:28;;;;;;;10.68;5.07;;;15.30;99.90;;;;;;6154549;23;20362;-82
2022/03/18 12:09:57;;;;;;;14.30;5.43;;;15.50;99.90;;;;;;6155973;23;20020;-82
2022/03/18 12:12:24;;;;;;;8.77;4.00;;;15.60;99.90;;;;;;6130448;23;20005;-82
2022/03/18 12:14:52;;;;;;;8.90;3.85;;;15.80;99.90;;;;;;6155042;23;20136;-83
2022/03/18 12:17:18;;;;;;;12.75;4.75;;;15.80;99.90;;;;;;6131203;23;20033;-82
2022/03/18 12:19:49;;;;;;;11.10;4.22;;;15.80;99.90;;;;;;6130547;23;20036;-82
2022/03/18 12:22:16;;;;;;;8.32;3.80;;;15.80;99.90;;;;;;6153222;23;20398;-83
2022/03/18 12:24:41;;;;;;;8.68;4.57;;;15.70;99.90;;;;;;6126662;23;20073;-82
2022/03/18 12:27:07;;;;;;;10.52;5.13;;;15.70;99.90;;;;;;6151329;23;20013;-82
2022/03/18 12:29:32;;;;;;;11.48;4.40;;;15.60;99.90;;;;;;6151232;23;20454;-82
2022/03/18 12:32:02;;;;;;;10.57;4.45;;;15.50;99.90;;;;;;6126498;23;20410;-81
2022/03/18 12:34:28;;;;;;;7.22;3.97;;;15.60;99.90;;;;;;6126973;23;20462;-82
2022/03/18 12:36:53;;;;;;;11.68;3.83;;;15.70;99.90;;;;;;6130397;23;20092;-82
2022/03/18 12:39:19;;;;;;;8.35;3.55;;;15.60;99.90;;;;;;6156239;23;20044;-82
2022/03/18 12:41:45;;;;;;;10.05;4.10;;;15.70;99.90;;;;;;6156178;23;20138;-82
2022/03/18 12:44:10;;;;;;;7.30;3.60;;;15.60;99.90;;;;;;6156027;23;20064;-82
2022/03/18 12:46:39;;;;;;;8.38;3.72;;;15.60;99.90;;;;;;6156330;23;20017;-82
2022/03/18 12:49:09;;;;;;;6.30;3.40;;;15.70;99.90;;;;;;6133824;23;20367;-82
2022/03/18 12:51:36;;;;;;;7.65;3.42;;;15.70;99.90;;;;;;6133531;23;20338;-82
2022/03/18 12:54:01;;;;;;;7.55;3.20;;;15.50;99.90;;;;;;6132039;23;20049;-82
2022/03/18 12:56:28;;;;;;;7.00;3.13;;;15.30;99.90;;;;;;6155568;23;20018;-82
2022/03/18 12:58:54;;;;;;;11.15;4.13;;;15.20;99.90;;;;;;6157437;23;20018;-82